Terminal Aerodrome Forecast
Issued by NWS

Home | Current Version | Previous Version | Text Only | Print | Product List | Glossary Off
Versions: 1 2 3 4 5 6 7 8 9 10 11 12 13

138
FTUS43 KMPX 161249 AAA
TAFAXN
TAF AMD
KAXN 161249Z 1613/1712 34010KT P6SM SCT007
     FM161900 28008KT P6SM SCT015
     FM162100 25007KT P6SM SCT020
     FM170000 23007KT P6SM BKN100=

USA.gov is the U.S. government's official web portal to all federal, state and local government web resources and services.